Messwerte Burlington

Temperatur

Temperatur
°C
1614330000 4.00 4.00 10
1614333600 5.00 5.00 10
1614337200 6.00 6.00 9
1614340800 7.00 7.00 8
1614344400 8.00 8.00 8
1614348000 9.00 9.00 8
1614351600 10.00 10.00 8
1614355200 11.00 11.00 9
1614358800 12.00 12.00 9
1614362400 13.00 13.00 9
1614366000 14.00 14.00 9
1614369600 15.00 15.00 9
1614373200 16.00 16.00 9
1614376800 17.00 17.00 7
1614380400 18.00 18.00 6
1614384000 19.00 19.00
1614387600 20.00 20.00 5
1614391200 21.00 21.00 5
1614394800 22.00 22.00 6
1614398400 23.00 23.00 5
1614402000 0.00 0.00 4
1614405600 1.00 1.00 4
1614409200 2.00 2.00 4
1614412800 3.00 3.00 4

Aktuellste Messwerte

Wettercharakter
Wetter: bedeckt
Temperatur
4 °C
Feuchtigkeit
85 %
Wind
10 km/hWindrichtung: Nord
Luftdruck
1022 hPa
Messzeit: 27. Februar 2021, 4.00Datenquelle: METAR

Weitere Messstationen in der Nähe

Messstation Temperatur Entfernung
Greensboro 2 °C 43 km
Roxboro 2 °C 51 km
Asheboro 3 °C 58 km
Danville 3 °C 59 km
Sanford 5 °C 62 km
Raleigh 5 °C 65 km
Winston Salem 3 °C 68 km

Wind

Windrichtung Böen Mittelwind
° km/h km/h
1614330000 4.00 3.00 - 4.00 30° 5
1614333600 5.00 4.00 - 5.00 20° 5
1614337200 6.00 5.00 - 6.00
1614340800 7.00 6.00 - 7.00 20° 10
1614344400 8.00 7.00 - 8.00 40° 15
1614348000 9.00 8.00 - 9.00 30° 30 15
1614351600 10.00 9.00 - 10.00 50° 15
1614355200 11.00 10.00 - 11.00 60° 30 20
1614358800 12.00 11.00 - 12.00 70° 35 20
1614362400 13.00 12.00 - 13.00 60° 15
1614366000 14.00 13.00 - 14.00 80° 10
1614369600 15.00 14.00 - 15.00 60° 10
1614373200 16.00 15.00 - 16.00 70° 5
1614376800 17.00 16.00 - 17.00 40° 10
1614380400 18.00 17.00 - 18.00 10° 20
1614384000 19.00 18.00 - 19.00
1614387600 20.00 19.00 - 20.00 60° 15
1614391200 21.00 20.00 - 21.00 60° 10
1614394800 22.00 21.00 - 22.00 30° 10
1614398400 23.00 22.00 - 23.00 30° 15
1614402000 0.00 23.00 - 0.00 10° 15
1614405600 1.00 0.00 - 1.00 350° 10
1614409200 2.00 1.00 - 2.00 20° 10
1614412800 3.00 2.00 - 3.00 360° 10

Ihre Wetterstation

Fehlt Ihre Wetterstation auf unserem Portal?

Schreiben Sie an network@meteonews.ch

Klima

Wann ist es am wärmsten? Wann regnet es am wenigsten? Unsere Klimadaten geben Auskunft.